AirNav   Pilot Hours Calculator
 
 1083 users online  

7FL3 Hammock Seaplane Landing Area Seaplane Base
Jacksonville, Florida, USA


FAA INFORMATION EFFECTIVE 04 NOVEMBER 2021

Location

FAA Identifier: 7FL3
Lat/Long: 30-31-59.4400N 081-28-56.0400W
30-31.990667N 081-28.934000W
30.5331778,-81.4822333
(estimated)
Elevation: 0 ft. / 0 m (estimated)
From city: 15 miles NE of JACKSONVILLE, FL
Time zone: UTC +0 (year round; does not observe DST)
Zip code: 32226

Seaplane Base Operations

Seaplane Base use: Private use. Permission required prior to landing
Activation date: 05/2021
Control tower: no
ARTCC: JACKSONVILLE CENTER
FSS: GAINESVILLE FLIGHT SERVICE STATION
Attendance: 
Segmented circle: no

Seaplane Base Communications

WX AWOS-3 at FHB (5 nm N): 118.075 (904-277-7323)
WX ASOS at JAX (11 nm W): 125.85 (904-741-4304)
WX ASOS at CRG (12 nm S): 125.4 (904-646-4670)

Nearby radio navigation aids

VOR radial/distance  VOR name  Freq  Var
CRGr010/11.7CRAIG VORTAC114.5003W
SSIr187/31.1BRUNSWICK VORTAC109.8004W
SGJr353/35.5ST AUGUSTINE VOR/DME109.4006W

 
NDB name  Hdg/Dist  Freq  Var  ID
REYNOLDS022/35.233807WRYD .-. -.-- -..

Seaplane Base Services

Runway Information

Runway 12W/30W

Dimensions: 5264 x 250 ft. / 1604 x 76 m
Surface: water
RUNWAY 12W  RUNWAY 30W
Latitude: 30-32.050000N30-31.666667N
Longitude: 081-28.816667W081-27.916667W
Elevation: 0.0 ft.0.0 ft.
Traffic pattern: leftleft

Seaplane Base Ownership and Management from official FAA records

Ownership: Privately-owned
Owner: RON BROWDER, JR
16201 WATERVILLE RD
JACKSONVILLE, FL 32226
Phone 904-534-1737
Manager: RON BROWDER, JR
16201 WATERVILLE RD
JACKSONVILLE, FL 32226
Phone 904-534-1737

Seaplane Base Operational Statistics

Aircraft based on the field: 4
Single engine airplanes: 1
Multi engine airplanes: 1
Helicopters: 1
Gliders airplanes: 1
    

Instrument Procedures

There are no published instrument procedures at 7FL3.

Some nearby airports with instrument procedures:

KFHB - Fernandina Beach Municipal Airport (5 nm N)
KNRB - Mayport Naval Station (Adm David L. McDonald Field) (9 nm S)
KJAX - Jacksonville International Airport (11 nm W)
KCRG - Jacksonville Executive Airport at Craig (12 nm S)
KNIP - Jacksonville Naval Air Station (Towers Field) (21 nm SW)
 
Loc | Ops | Rwys | IFR | FBO | Links
Com | Nav | Svcs | Stats | Notes
Aerial photo
No photo
 
Airport distance calculator
Flying to Hammock Seaplane Landing Area Seaplane Base? Find the distance to fly.

From to 7FL3

Sunrise and sunset
Times for 30-Nov-2021
 Zulu (UTC)
Morning civil twilight11:39
Sunrise12:06
Sunset22:24
Evening civil twilight22:50

Current date and time
Zulu (UTC)  01-Dec-2021 03:09:08
 
METAR
KFHB 
5nm N 
010255Z AUTO 00000KT 10SM CLR 08/07 A3023 RMK AO2 T00830067
KNRB 
10nm S 
010252Z 00000KT 10SM FEW250 10/09 A3022 RMK AO2 SLP234 T01000089 51008
KJAX 
11nm W 
010256Z 00000KT 10SM FEW250 07/06 A3022 RMK AO2 SLP234 T00670056 51008
KCRG 
12nm S 
010253Z 00000KT 10SM CLR 08/06 A3023 RMK AO2 SLP235 T00830061 51008
TAF
KNRB 
10nm S 
3023/0123 VRB05KT 9999 FEW250 QNH3018INS FM011500 03008KT 9999 SCT250 QNH3017INS AUTOMATED SENSOR METWATCH 0104 TIL 0109 T09/0111Z T21/0119Z FN20083
KJAX 
11nm W 
301746Z 3018/0118 03004KT P6SM SKC FM010000 00000KT P6SM FEW250 FM011400 08003KT P6SM SCT250
KCRG 
12nm S 
301747Z 3018/0118 02005KT P6SM SKC FM010000 00000KT P6SM FEW250 FM011400 05004KT P6SM SCT250
NOTAMs
Click for the latest NOTAMs
NOTAMs are issued by the DoD/FAA and will open in a separate window not controlled by AirNav.

 

 
 

Would you like to see your business listed on this page?

 If your business provides an interesting product or service to pilots, flight crews, aircraft, or users of the Hammock Seaplane Landing Area Seaplane Base, you should consider listing it here.  To start the listing process, click on the button below
 
Add a business
 

Other Pages about Hammock Seaplane Landing Area Seaplane Base

Update a link
 
Copyright © AirNav, LLC. All rights reserved. Privacy Policy  Contact